createdAt,value
2022-10-18T00:00:05.932Z,100889.46
2022-10-18T00:02:58.459Z,100891.48
2022-10-18T00:05:29.115Z,100892.30
2022-10-18T00:08:04.661Z,100898.03
2022-10-18T00:10:33.225Z,100902.02
2022-10-18T00:13:04.806Z,100895.27
2022-10-18T00:15:33.898Z,100891.87
2022-10-18T00:18:04.083Z,100890.79
2022-10-18T00:20:33.379Z,100893.12
2022-10-18T00:23:01.990Z,100892.56
2022-10-18T00:25:32.680Z,100896.86
2022-10-18T00:28:02.009Z,100899.01
2022-10-18T00:30:31.560Z,100894.77
2022-10-18T00:33:00.935Z,100891.21
2022-10-18T00:35:30.492Z,100887.80
2022-10-18T00:38:05.866Z,100883.74
2022-10-18T00:40:40.818Z,100888.23
2022-10-18T00:43:16.487Z,100889.36
2022-10-18T00:45:51.859Z,100892.86
2022-10-18T00:48:23.014Z,100889.48
2022-10-18T00:50:53.529Z,100894.35
2022-10-18T00:53:23.827Z,100894.83
2022-10-18T00:55:58.270Z,100898.70
2022-10-18T00:58:32.523Z,100897.95
2022-10-18T01:01:03.675Z,100901.61
2022-10-18T01:03:32.832Z,100900.08
2022-10-18T01:06:01.908Z,100893.51
2022-10-18T01:08:58.546Z,100892.61
2022-10-18T01:11:51.937Z,100890.91
2022-10-18T01:14:34.643Z,100889.98
2022-10-18T01:17:04.847Z,100888.48
2022-10-18T01:19:59.771Z,100890.19
2022-10-18T01:22:42.800Z,100889.81
2022-10-18T01:25:16.776Z,100884.61
2022-10-18T01:28:21.704Z,100883.91
2022-10-18T01:31:15.516Z,100886.46
2022-10-18T01:33:57.240Z,100889.61
2022-10-18T01:36:44.903Z,100886.35
2022-10-18T01:39:22.929Z,100888.14
2022-10-18T01:42:00.183Z,100891.56
2022-10-18T01:44:36.323Z,100888.92
2022-10-18T01:47:15.482Z,100890.32
2022-10-18T01:49:50.655Z,100887.17
2022-10-18T01:52:23.955Z,100884.83
2022-10-18T01:55:00.209Z,100877.11
2022-10-18T01:57:34.441Z,100872.19
2022-10-18T02:00:16.963Z,100874.65
2022-10-18T02:02:55.560Z,100876.39
2022-10-18T02:05:40.627Z,100878.31
2022-10-18T02:08:26.777Z,100882.45
2022-10-18T02:11:05.764Z,100886.05
2022-10-18T02:13:46.226Z,100885.24
2022-10-18T02:16:24.170Z,100883.98
2022-10-18T02:19:03.527Z,100887.95
2022-10-18T02:21:39.438Z,100885.39
2022-10-18T02:24:14.053Z,100886.77
2022-10-18T02:26:50.014Z,100883.00
2022-10-18T02:29:23.733Z,100885.31
2022-10-18T02:32:04.758Z,100888.48
2022-10-18T02:34:48.630Z,100884.77
2022-10-18T02:37:28.366Z,100887.70
2022-10-18T02:40:02.310Z,100887.87
2022-10-18T02:42:38.669Z,100889.38
2022-10-18T02:45:14.287Z,100883.27
2022-10-18T02:47:44.048Z,100882.79
2022-10-18T02:50:20.730Z,100885.39
2022-10-18T02:52:55.676Z,100888.40
2022-10-18T02:58:04.661Z,100889.57
2022-10-18T03:00:39.803Z,100889.88
2022-10-18T03:03:08.382Z,100887.18
2022-10-18T03:05:44.766Z,100892.90
2022-10-18T03:08:20.119Z,100893.54
2022-10-18T03:10:50.410Z,100895.52
2022-10-18T03:13:21.570Z,100893.66
2022-10-18T03:15:55.179Z,100887.70
2022-10-18T03:18:24.033Z,100892.19
2022-10-18T03:20:53.925Z,100889.22
2022-10-18T03:23:24.372Z,100890.02
2022-10-18T03:25:57.599Z,100887.25
2022-10-18T03:28:32.698Z,100893.05
2022-10-18T03:31:06.695Z,100892.90
2022-10-18T03:33:41.434Z,100890.90
2022-10-18T03:36:16.762Z,100897.95
2022-10-18T03:38:53.081Z,100901.48
2022-10-18T03:41:26.908Z,100902.45
2022-10-18T03:44:03.741Z,100897.40
2022-10-18T03:46:32.695Z,100901.46
2022-10-18T03:49:01.778Z,100908.08
2022-10-18T03:51:37.768Z,100908.56
2022-10-18T03:54:13.767Z,100914.33
2022-10-18T03:56:50.668Z,100918.46
2022-10-18T03:59:24.842Z,100916.14
2022-10-18T04:01:59.115Z,100918.27
2022-10-18T04:04:35.450Z,100919.20
2022-10-18T04:07:10.854Z,100920.30
2022-10-18T04:09:47.834Z,100927.48
2022-10-18T04:12:23.481Z,100925.83
2022-10-18T04:15:13.976Z,100921.59
2022-10-18T04:17:49.777Z,100923.51
2022-10-18T04:20:26.520Z,100923.98
2022-10-18T04:23:01.613Z,100929.06
2022-10-18T04:25:49.870Z,100926.79
2022-10-18T04:28:27.355Z,100929.77
2022-10-18T04:31:22.862Z,100931.30
2022-10-18T04:33:58.405Z,100931.83
2022-10-18T04:36:46.679Z,100932.48
2022-10-18T04:39:22.404Z,100934.80
2022-10-18T04:41:56.502Z,100935.44
2022-10-18T04:44:44.931Z,100929.53
2022-10-18T04:47:18.012Z,100923.99
2022-10-18T04:49:51.364Z,100927.85
2022-10-18T04:52:24.003Z,100932.92
2022-10-18T04:55:02.844Z,100935.91
2022-10-18T04:57:38.544Z,100938.95
2022-10-18T05:00:08.738Z,100935.86
2022-10-18T05:02:37.732Z,100938.08
2022-10-18T05:05:10.299Z,100940.52
2022-10-18T05:07:42.043Z,100943.45
2022-10-18T05:10:11.926Z,100944.84
2022-10-18T05:12:42.016Z,100943.36
2022-10-18T05:15:11.406Z,100939.61
2022-10-18T05:17:41.622Z,100941.61
2022-10-18T05:20:11.126Z,100942.04
2022-10-18T05:22:41.404Z,100938.94
2022-10-18T05:25:12.555Z,100937.01
2022-10-18T05:27:44.940Z,100937.05
2022-10-18T05:30:22.093Z,100933.98
2022-10-18T05:32:55.745Z,100931.44
2022-10-18T05:35:28.091Z,100927.75
2022-10-18T05:38:03.115Z,100928.89
2022-10-18T05:40:32.472Z,100925.42
2022-10-18T05:43:01.926Z,100925.33
2022-10-18T05:45:30.463Z,100926.09
2022-10-18T05:48:05.874Z,100931.27
2022-10-18T05:50:40.365Z,100937.84
2022-10-18T05:53:35.087Z,100936.52
2022-10-18T05:56:09.039Z,100932.03
2022-10-18T05:58:42.075Z,100937.91
2022-10-18T06:01:19.322Z,100942.75
2022-10-18T06:03:53.084Z,100946.56
2022-10-18T06:06:22.754Z,100945.09
2022-10-18T06:08:58.021Z,100956.29
2022-10-18T06:11:33.607Z,100960.11
2022-10-18T06:14:10.540Z,100961.23
2022-10-18T06:16:46.609Z,100960.30
2022-10-18T06:19:31.863Z,100967.11
2022-10-18T06:22:06.819Z,100970.97
2022-10-18T06:24:40.751Z,100979.36
2022-10-18T06:27:26.684Z,100984.43
2022-10-18T06:30:03.520Z,100986.63
2022-10-18T06:32:50.751Z,100991.54
2022-10-18T06:35:30.540Z,100987.33
2022-10-18T06:38:08.000Z,100991.74
2022-10-18T06:40:48.958Z,100987.65
2022-10-18T06:43:24.597Z,100978.14
2022-10-18T06:45:57.644Z,100973.07
2022-10-18T06:48:31.777Z,100971.65
2022-10-18T06:51:07.287Z,100973.23
2022-10-18T06:53:44.406Z,100975.02
2022-10-18T06:56:29.807Z,100970.83
2022-10-18T06:59:09.573Z,100972.22
2022-10-18T07:02:02.591Z,100983.31
2022-10-18T07:04:38.686Z,100979.06
2022-10-18T07:07:14.715Z,100977.71
2022-10-18T07:09:51.923Z,100979.29
2022-10-18T07:12:26.742Z,100984.30
2022-10-18T07:15:06.831Z,100986.56
2022-10-18T07:17:45.522Z,100987.65
2022-10-18T07:20:20.334Z,100990.05
2022-10-18T07:22:57.654Z,100990.89
2022-10-18T07:25:32.082Z,100997.77
2022-10-18T07:28:08.544Z,100996.85
2022-10-18T07:43:57.609Z,100999.48
2022-10-18T07:52:54.589Z,100993.43
2022-10-18T07:55:32.435Z,100995.86
2022-10-18T07:58:10.801Z,100996.79
2022-10-18T08:00:48.264Z,101003.34
2022-10-18T08:03:21.650Z,100999.81
2022-10-18T08:09:04.596Z,100991.10
2022-10-18T08:11:55.433Z,100981.34
2022-10-18T08:14:31.526Z,100986.53
2022-10-18T08:17:06.499Z,100984.05
2022-10-18T08:20:11.919Z,100972.90
2022-10-18T08:22:50.257Z,100974.22
2022-10-18T08:25:25.768Z,100975.77
2022-10-18T08:28:02.185Z,100970.73
2022-10-18T08:30:37.918Z,100971.08
2022-10-18T08:33:13.412Z,100977.73
2022-10-18T08:35:58.307Z,100977.81
2022-10-18T08:38:33.106Z,100983.80
2022-10-18T08:41:22.472Z,100988.67
2022-10-18T08:44:07.391Z,100988.98
2022-10-18T08:50:15.588Z,100982.64
2022-10-18T08:56:00.428Z,100971.89
2022-10-18T09:02:17.718Z,100974.08
2022-10-18T09:05:16.063Z,100973.17
2022-10-18T09:07:57.109Z,100974.52
2022-10-18T09:10:45.948Z,100972.16
2022-10-18T09:14:00.236Z,100973.42
2022-10-18T09:16:55.866Z,100970.98
2022-10-18T09:19:56.207Z,100964.45
2022-10-18T09:22:51.458Z,100956.97
2022-10-18T09:25:46.042Z,100942.20
2022-10-18T09:38:14.698Z,100932.30
2022-10-18T09:41:14.585Z,100933.45
2022-10-18T09:44:19.911Z,100937.48
2022-10-18T09:47:11.305Z,100941.63
2022-10-18T10:45:42.379Z,100906.77
2022-10-18T11:02:18.504Z,100896.06
2022-10-18T11:04:55.066Z,100898.90
2022-10-18T11:10:51.192Z,100891.13
2022-10-18T11:13:30.003Z,100890.62
2022-10-18T11:16:08.333Z,100883.28
2022-10-18T11:35:29.519Z,100859.25
2022-10-18T13:14:08.477Z,100753.06
2022-10-18T13:20:25.903Z,100769.66
2022-10-18T13:23:09.651Z,100767.91
2022-10-18T13:25:55.260Z,100772.08
2022-10-18T13:28:58.519Z,100770.71
2022-10-18T13:34:45.542Z,100754.68
2022-10-18T14:00:53.922Z,100738.67
2022-10-18T14:19:48.694Z,100722.98
2022-10-18T14:45:26.210Z,100732.27
2022-10-18T14:51:34.926Z,100726.40
2022-10-18T15:03:36.657Z,100730.02
2022-10-18T15:16:18.436Z,100699.53
2022-10-18T15:28:35.244Z,100719.98
2022-10-18T15:31:07.708Z,100713.98
2022-10-18T15:33:37.228Z,100709.95
2022-10-18T15:36:12.631Z,100700.80
2022-10-18T15:38:45.117Z,100691.48
2022-10-18T15:44:33.704Z,100671.77
2022-10-18T15:47:20.999Z,100655.02
2022-10-18T15:49:58.253Z,100662.42
2022-10-18T15:52:44.862Z,100677.23
2022-10-18T15:55:41.138Z,100674.49
2022-10-18T15:58:34.256Z,100680.55
2022-10-18T16:13:48.758Z,100703.96
2022-10-18T16:17:06.664Z,100716.21
2022-10-18T16:42:29.102Z,100683.27
2022-10-18T16:44:59.154Z,100696.15
2022-10-18T16:47:30.225Z,100695.89
2022-10-18T16:50:06.517Z,100696.02
2022-10-18T16:52:40.536Z,100701.20
2022-10-18T16:55:36.838Z,100698.07
2022-10-18T16:58:06.509Z,100711.82
2022-10-18T17:00:36.248Z,100714.92
2022-10-18T17:03:05.176Z,100717.63
2022-10-18T17:05:35.859Z,100715.27
2022-10-18T17:08:06.261Z,100723.66
2022-10-18T17:10:38.322Z,100726.15
2022-10-18T17:13:09.308Z,100721.59
2022-10-18T17:15:43.319Z,100716.37
2022-10-18T17:18:13.808Z,100720.06
2022-10-18T17:20:44.762Z,100721.94
2022-10-18T17:23:15.959Z,100723.19
2022-10-18T17:25:59.179Z,100733.11
2022-10-18T17:28:38.994Z,100740.95
2022-10-18T17:31:11.815Z,100739.75
2022-10-18T17:33:42.710Z,100738.77
2022-10-18T17:36:12.137Z,100735.92
2022-10-18T17:38:44.390Z,100733.65
2022-10-18T17:41:17.409Z,100729.05
2022-10-18T17:47:04.696Z,100716.35
2022-10-18T17:49:37.998Z,100716.88
2022-10-18T17:52:08.445Z,100714.53
2022-10-18T17:58:46.625Z,100715.98
2022-10-18T18:01:24.039Z,100715.23
2022-10-18T18:04:05.234Z,100713.81
2022-10-18T18:06:46.363Z,100713.98
2022-10-18T18:09:17.224Z,100715.95
2022-10-18T18:12:17.864Z,100715.04
2022-10-18T18:14:49.325Z,100722.15
2022-10-18T18:17:28.651Z,100725.02
2022-10-18T18:20:07.381Z,100725.36
2022-10-18T18:22:42.546Z,100726.23
2022-10-18T18:25:14.553Z,100725.34
2022-10-18T18:27:45.483Z,100723.82
2022-10-18T18:30:18.743Z,100724.90
2022-10-18T18:32:48.752Z,100729.98
2022-10-18T18:35:24.034Z,100726.30
2022-10-18T18:37:53.512Z,100727.71
2022-10-18T18:40:24.833Z,100723.30
2022-10-18T18:43:07.286Z,100726.11
2022-10-18T18:45:50.973Z,100725.89
2022-10-18T18:48:21.073Z,100722.52
2022-10-18T18:50:53.279Z,100720.47
2022-10-18T18:53:27.226Z,100719.98
2022-10-18T18:56:08.826Z,100715.52
2022-10-18T18:58:40.771Z,100716.46
2022-10-18T19:01:18.010Z,100715.79
2022-10-18T19:03:49.631Z,100717.32
2022-10-18T19:06:22.280Z,100714.43
2022-10-18T19:08:57.130Z,100711.42
2022-10-18T19:11:28.149Z,100717.32
2022-10-18T19:14:00.567Z,100714.71
2022-10-18T19:16:35.087Z,100711.17
2022-10-18T19:19:06.854Z,100712.86
2022-10-18T19:21:45.772Z,100715.25
2022-10-18T19:24:15.482Z,100720.10
2022-10-18T19:26:48.308Z,100720.56
2022-10-18T19:29:22.012Z,100719.61
2022-10-18T19:32:00.789Z,100722.56
2022-10-18T19:34:32.437Z,100724.54
2022-10-18T19:37:03.356Z,100724.84
2022-10-18T19:39:34.408Z,100723.13
2022-10-18T19:42:07.474Z,100718.95
2022-10-18T19:44:41.526Z,100715.27
2022-10-18T19:47:12.499Z,100714.45
2022-10-18T19:49:48.879Z,100717.24
2022-10-18T19:52:18.507Z,100719.20
2022-10-18T19:54:52.983Z,100718.20
2022-10-18T19:57:22.815Z,100711.98
2022-10-18T19:59:56.702Z,100717.80
2022-10-18T20:02:26.992Z,100719.27
2022-10-18T20:04:55.967Z,100719.34
2022-10-18T20:07:26.463Z,100715.10
2022-10-18T20:09:57.169Z,100721.19
2022-10-18T20:12:31.294Z,100716.54
2022-10-18T20:15:00.260Z,100720.78
2022-10-18T20:17:32.130Z,100725.39
2022-10-18T20:20:00.802Z,100721.59
2022-10-18T20:22:32.339Z,100724.58
2022-10-18T20:25:04.777Z,100722.66
2022-10-18T20:27:33.930Z,100726.77
2022-10-18T20:30:08.926Z,100721.88
2022-10-18T20:32:40.497Z,100724.30
2022-10-18T20:35:10.050Z,100725.77
2022-10-18T20:37:41.685Z,100724.85
2022-10-18T20:40:11.792Z,100722.85
2022-10-18T20:42:40.869Z,100730.54
2022-10-18T20:45:13.561Z,100732.16
2022-10-18T20:47:43.763Z,100727.34
2022-10-18T20:50:13.007Z,100726.67
2022-10-18T20:52:44.232Z,100726.39
2022-10-18T20:59:15.216Z,100717.77
2022-10-18T21:01:45.267Z,100713.24
2022-10-18T21:04:16.256Z,100714.34
2022-10-18T21:06:47.523Z,100713.42
2022-10-18T21:09:18.527Z,100714.79
2022-10-18T21:11:50.671Z,100713.84
2022-10-18T21:14:21.040Z,100718.92
2022-10-18T21:16:50.796Z,100722.09
2022-10-18T21:19:23.409Z,100719.41
2022-10-18T21:21:57.707Z,100715.66
2022-10-18T21:24:27.182Z,100715.08
2022-10-18T21:26:57.564Z,100714.09
2022-10-18T21:29:27.296Z,100716.71
2022-10-18T21:31:59.912Z,100716.64
2022-10-18T21:34:28.475Z,100716.48
2022-10-18T21:36:57.958Z,100707.95
2022-10-18T21:39:30.431Z,100706.64
2022-10-18T21:42:00.984Z,100705.83
2022-10-18T21:44:31.310Z,100709.54
2022-10-18T21:46:59.981Z,100705.61
2022-10-18T21:49:29.978Z,100706.96
2022-10-18T21:51:58.626Z,100707.16
2022-10-18T21:58:19.668Z,100708.52
2022-10-18T22:00:50.421Z,100707.35
2022-10-18T22:03:23.612Z,100708.28
2022-10-18T22:06:01.928Z,100707.80
2022-10-18T22:08:31.110Z,100705.46
2022-10-18T22:11:04.078Z,100698.32
2022-10-18T22:13:34.443Z,100692.73
2022-10-18T22:16:06.059Z,100684.27
2022-10-18T22:18:36.173Z,100678.90
2022-10-18T22:21:08.694Z,100676.33
2022-10-18T22:23:39.366Z,100667.14
2022-10-18T22:26:09.809Z,100671.58
2022-10-18T22:28:39.399Z,100666.61
2022-10-18T22:31:19.577Z,100663.23
2022-10-18T22:33:59.781Z,100656.85
2022-10-18T23:05:45.618Z,100631.91
2022-10-18T23:08:15.245Z,100632.04
2022-10-18T23:10:47.109Z,100636.80
2022-10-18T23:13:16.558Z,100635.02
2022-10-18T23:15:46.846Z,100635.20
2022-10-18T23:18:18.056Z,100630.88
2022-10-18T23:20:46.686Z,100636.02
2022-10-18T23:23:15.432Z,100629.09
2022-10-18T23:25:46.827Z,100627.52
2022-10-18T23:28:17.247Z,100627.06
2022-10-18T23:30:47.339Z,100625.94
2022-10-18T23:33:17.301Z,100623.60
2022-10-18T23:35:47.669Z,100622.27
2022-10-18T23:38:17.124Z,100619.48
2022-10-18T23:40:47.867Z,100618.23
2022-10-18T23:43:19.550Z,100616.77
2022-10-18T23:45:49.347Z,100608.92
2022-10-18T23:48:18.256Z,100610.88
2022-10-18T23:50:48.240Z,100608.47
2022-10-18T23:53:19.974Z,100607.14
2022-10-18T23:56:17.389Z,100609.20
2022-10-18T23:58:47.534Z,100606.02
